Time;durP1;ratioP1;P1;durP2;ratioP2;P2;SDS_P1;SDS_P2;PMS_P1;PMS_P2;Temp;Humidity;BMP_temperature;BMP_pressure;BME280_temperature;BME280_humidity;BME280_pressure;Samples;Min_cycle;Max_cycle;Signal;HPM_P1;HPM_P2
2024/01/28 00:00:40;;;;;;;17.40;5.60;;;;;;;1.52;96.18;101789.98;130117;1267;107030;-83
2024/01/28 00:04:05;;;;;;;18.00;5.70;;;;;;;1.61;96.06;101788.94;130100;1263;109793;-82
2024/01/28 00:07:11;;;;;;;19.00;6.00;;;;;;;1.63;95.95;101793.42;130064;1264;107577;-82
2024/01/28 00:10:17;;;;;;;16.60;5.10;;;;;;;1.62;95.93;101791.36;130137;1263;108750;-83
2024/01/28 00:13:24;;;;;;;17.40;5.50;;;;;;;1.61;96.10;101790.70;129974;1270;107598;-82
2024/01/28 00:16:29;;;;;;;19.40;6.40;;;;;;;1.62;96.20;101794.88;130130;1266;108798;-83
2024/01/28 00:19:35;;;;;;;11.90;4.80;;;;;;;1.63;96.19;101799.55;130065;1264;107646;-83
2024/01/28 00:22:40;;;;;;;14.10;4.70;;;;;;;1.72;96.36;101806.79;130038;1264;108704;-83
2024/01/28 00:25:46;;;;;;;15.40;4.40;;;;;;;1.80;96.05;101811.38;130169;1264;106376;-83
2024/01/28 00:28:52;;;;;;;12.60;4.70;;;;;;;1.88;96.10;101811.60;130159;1267;108008;-83
2024/01/28 00:31:59;;;;;;;14.30;5.70;;;;;;;1.94;96.13;101816.62;130179;1264;107645;-83
2024/01/28 00:35:05;;;;;;;16.60;5.60;;;;;;;1.98;96.01;101825.25;130198;1267;107002;-85
2024/01/28 00:38:10;;;;;;;17.40;5.10;;;;;;;1.98;95.87;101826.11;130208;1266;106836;-83
2024/01/28 00:41:23;;;;;;;16.40;5.10;;;;;;;1.97;95.86;101830.38;130207;1267;107831;-84
2024/01/28 00:44:29;;;;;;;20.80;6.30;;;;;;;2.00;95.92;101835.04;130169;1264;107053;-82
2024/01/28 00:47:35;;;;;;;15.40;5.80;;;;;;;2.04;95.91;101838.91;130212;1265;107800;-83
2024/01/28 00:50:40;;;;;;;18.40;6.00;;;;;;;2.09;96.22;101838.73;130204;1267;107165;-83
2024/01/28 00:53:46;;;;;;;16.60;5.70;;;;;;;2.14;96.11;101845.35;130176;1266;107769;-83
2024/01/28 00:56:52;;;;;;;15.00;5.90;;;;;;;2.16;96.00;101850.73;130188;1264;107695;-84
2024/01/28 00:59:58;;;;;;;16.20;5.90;;;;;;;2.18;95.93;101850.14;130238;1267;108711;-82
2024/01/28 01:03:03;;;;;;;20.90;6.50;;;;;;;2.17;95.92;101857.70;130211;1267;107589;-83
2024/01/28 01:06:09;;;;;;;17.30;5.70;;;;;;;2.17;95.90;101864.02;130221;1266;107084;-82
2024/01/28 01:09:16;;;;;;;18.00;6.20;;;;;;;2.20;96.08;101860.91;130144;1267;107702;-83
2024/01/28 01:12:22;;;;;;;18.60;6.20;;;;;;;2.24;96.11;101861.65;130161;1264;108652;-84
2024/01/28 01:15:28;;;;;;;16.30;6.10;;;;;;;2.23;96.05;101859.06;130182;1266;106701;-83
2024/01/28 01:18:34;;;;;;;17.60;5.50;;;;;;;2.22;96.19;101858.23;130165;1267;107238;-83
2024/01/28 01:21:40;;;;;;;14.00;5.30;;;;;;;2.22;96.32;101857.35;130182;1267;107634;-83
2024/01/28 01:24:45;;;;;;;12.50;5.80;;;;;;;2.24;96.34;101862.36;130213;1263;107645;-83
2024/01/28 01:27:52;;;;;;;14.90;5.50;;;;;;;2.31;96.61;101864.18;130248;1263;106411;-84
2024/01/28 01:30:58;;;;;;;12.90;5.20;;;;;;;2.37;96.40;101863.59;130220;1264;107144;-83
2024/01/28 01:34:04;;;;;;;14.50;5.30;;;;;;;2.43;96.31;101859.52;130180;1267;107695;-83
2024/01/28 01:37:11;;;;;;;16.60;6.00;;;;;;;2.45;96.29;101860.48;130256;1267;108733;-83
2024/01/28 01:40:17;;;;;;;16.30;5.40;;;;;;;2.44;96.35;101861.21;130223;1262;108724;-84
2024/01/28 01:43:22;;;;;;;16.50;5.50;;;;;;;2.42;96.51;101862.73;130226;1265;105650;-82
2024/01/28 01:46:28;;;;;;;15.20;5.60;;;;;;;2.41;96.83;101860.80;130191;1263;108391;-83
2024/01/28 01:49:34;;;;;;;15.20;6.10;;;;;;;2.46;96.79;101859.03;130210;1267;106684;-83
2024/01/28 01:52:40;;;;;;;18.50;6.90;;;;;;;2.54;96.81;101863.27;130244;1263;108003;-83
2024/01/28 01:55:46;;;;;;;14.80;4.80;;;;;;;2.54;96.84;101862.21;130231;1267;108665;-82
2024/01/28 01:58:53;;;;;;;14.70;5.70;;;;;;;2.52;96.91;101860.20;130211;1267;107493;-84
2024/01/28 02:02:00;;;;;;;14.40;5.90;;;;;;;2.48;97.01;101852.60;129910;1264;108567;-84
2024/01/28 02:05:06;;;;;;;14.30;5.10;;;;;;;2.51;97.16;101851.27;130196;1264;107565;-83
2024/01/28 02:08:12;;;;;;;16.80;5.20;;;;;;;2.56;97.38;101847.57;130225;1264;108629;-83
2024/01/28 02:11:18;;;;;;;14.60;5.50;;;;;;;2.62;97.46;101848.36;130214;1267;108677;-83
2024/01/28 02:14:27;;;;;;;15.40;6.30;;;;;;;2.64;97.30;101846.72;130217;1263;107469;-83
2024/01/28 02:17:32;;;;;;;16.40;7.10;;;;;;;2.61;97.60;101853.34;130230;1266;108179;-83
2024/01/28 02:20:38;;;;;;;14.70;5.80;;;;;;;2.61;97.52;101842.45;130165;1264;107626;-83
2024/01/28 02:23:43;;;;;;;12.70;5.10;;;;;;;2.68;97.55;101850.42;130227;1267;108812;-83
2024/01/28 02:26:49;;;;;;;12.50;5.40;;;;;;;2.71;97.42;101855.55;130222;1264;108741;-82
2024/01/28 02:29:55;;;;;;;13.20;5.60;;;;;;;2.76;97.52;101866.41;130201;1267;106175;-83
2024/01/28 02:33:00;;;;;;;12.40;5.50;;;;;;;2.79;97.82;101866.50;130147;1264;108638;-83
2024/01/28 02:36:07;;;;;;;12.90;5.60;;;;;;;2.84;97.64;101866.77;130193;1266;108569;-83
2024/01/28 02:39:13;;;;;;;10.00;4.70;;;;;;;2.89;97.63;101866.57;130195;1264;108619;-82
2024/01/28 02:42:19;;;;;;;13.80;5.20;;;;;;;2.89;97.52;101870.64;130277;1264;107258;-83
2024/01/28 02:45:25;;;;;;;9.70;3.90;;;;;;;2.83;97.59;101874.92;130177;1267;108516;-83
2024/01/28 02:48:30;;;;;;;13.50;5.30;;;;;;;2.77;97.89;101877.27;130165;1263;107736;-83
2024/01/28 02:51:36;;;;;;;11.30;4.30;;;;;;;2.79;98.36;101877.05;130174;1267;106804;-83
2024/01/28 02:54:41;;;;;;;12.10;4.90;;;;;;;2.79;98.27;101877.57;130137;1267;106474;-84
2024/01/28 02:57:47;;;;;;;11.00;4.90;;;;;;;2.82;98.33;101889.71;130172;1267;107477;-84
2024/01/28 03:00:53;;;;;;;8.90;4.40;;;;;;;2.86;98.33;101889.04;130196;1265;107947;-83
2024/01/28 03:03:59;;;;;;;11.10;4.70;;;;;;;2.87;98.37;101897.09;130051;1267;106891;-81
2024/01/28 03:07:05;;;;;;;10.40;4.20;;;;;;;2.78;99.14;101903.94;130036;1264;107445;-82
2024/01/28 03:10:11;;;;;;;11.90;4.90;;;;;;;2.70;99.34;101907.27;130108;1263;108636;-82
2024/01/28 03:13:16;;;;;;;10.10;4.00;;;;;;;2.68;99.43;101911.70;130218;1266;107898;-83
2024/01/28 03:16:22;;;;;;;7.60;4.00;;;;;;;2.72;99.45;101915.77;130195;1266;107814;-82
2024/01/28 03:19:28;;;;;;;8.50;4.60;;;;;;;2.77;99.45;101918.41;130079;1267;106194;-83
2024/01/28 03:22:33;;;;;;;9.80;4.70;;;;;;;2.78;99.80;101918.55;130190;1264;107677;-83
2024/01/28 03:25:39;;;;;;;8.30;3.70;;;;;;;2.79;99.50;101923.42;130131;1264;107436;-83
2024/01/28 03:28:44;;;;;;;7.70;3.60;;;;;;;2.74;99.96;101927.28;130197;1267;107514;-83
2024/01/28 03:31:50;;;;;;;9.30;4.10;;;;;;;2.74;99.79;101928.54;130127;1264;108608;-83
2024/01/28 03:34:56;;;;;;;6.20;3.00;;;;;;;2.80;99.96;101929.55;129941;1264;107585;-83
2024/01/28 03:38:01;;;;;;;6.70;3.10;;;;;;;2.85;99.72;101929.14;130223;1267;109119;-81
2024/01/28 03:41:07;;;;;;;8.90;3.80;;;;;;;2.86;99.95;101935.79;130168;1265;108295;-84
2024/01/28 03:44:17;;;;;;;7.90;3.20;;;;;;;2.89;99.81;101936.04;130251;1267;108725;-84
2024/01/28 03:47:22;;;;;;;7.10;3.60;;;;;;;2.97;99.69;101938.69;130035;1264;189713;-82
2024/01/28 03:50:28;;;;;;;6.30;3.30;;;;;;;2.99;99.85;101941.80;130182;1266;108105;-83
2024/01/28 03:53:34;;;;;;;7.70;3.70;;;;;;;2.98;99.75;101949.19;130201;1264;106716;-83
2024/01/28 03:56:40;;;;;;;5.20;2.90;;;;;;;2.99;99.86;101948.98;130215;1267;108737;-83
2024/01/28 03:59:46;;;;;;;6.30;3.50;;;;;;;3.07;99.77;101948.14;130065;1264;107811;-82
2024/01/28 04:02:52;;;;;;;5.80;2.80;;;;;;;3.12;99.77;101949.30;130116;1267;107609;-83
2024/01/28 04:05:58;;;;;;;4.60;3.00;;;;;;;3.08;99.63;101942.30;130120;1266;108928;-83
2024/01/28 04:09:03;;;;;;;6.20;2.60;;;;;;;3.01;99.73;101942.05;130104;1267;105522;-83
2024/01/28 04:12:09;;;;;;;4.70;2.80;;;;;;;3.01;99.85;101948.38;130160;1266;107541;-83
2024/01/28 04:15:15;;;;;;;5.90;3.00;;;;;;;2.99;99.81;101954.63;130112;1263;107016;-83
2024/01/28 04:18:21;;;;;;;6.00;2.60;;;;;;;2.97;99.93;101958.38;130130;1267;108706;-82
2024/01/28 04:21:28;;;;;;;5.50;2.40;;;;;;;2.92;99.99;101959.27;130129;1267;107699;-82
2024/01/28 04:24:34;;;;;;;4.30;2.50;;;;;;;2.99;99.96;101957.44;130117;1266;108491;-84
2024/01/28 04:27:40;;;;;;;5.20;2.60;;;;;;;3.07;99.82;101960.06;130179;1267;106371;-84
2024/01/28 04:30:45;;;;;;;5.10;3.00;;;;;;;3.07;99.75;101963.42;130125;1264;107827;-83
2024/01/28 04:33:51;;;;;;;4.40;2.30;;;;;;;3.07;99.72;101968.66;130080;1267;106657;-83
2024/01/28 04:36:57;;;;;;;5.10;2.60;;;;;;;3.08;99.77;101973.22;130135;1264;106183;-83
2024/01/28 04:40:04;;;;;;;5.60;2.70;;;;;;;3.07;99.61;101974.65;130079;1269;108524;-84
2024/01/28 04:43:09;;;;;;;4.50;2.80;;;;;;;3.09;99.94;101977.73;130123;1263;106180;-83
2024/01/28 04:46:17;;;;;;;4.40;3.00;;;;;;;3.08;99.88;101980.27;130132;1270;106783;-83
2024/01/28 04:49:23;;;;;;;5.20;2.60;;;;;;;3.11;99.96;101980.86;130101;1267;107300;-84
2024/01/28 04:52:28;;;;;;;4.10;3.00;;;;;;;3.10;99.92;101981.77;130145;1265;107225;-83
2024/01/28 04:55:35;;;;;;;4.50;3.10;;;;;;;3.04;99.93;101985.69;129905;1264;106502;-83
2024/01/28 04:58:40;;;;;;;5.00;2.50;;;;;;;3.01;99.91;101988.44;130125;1264;106738;-83
2024/01/28 05:01:46;;;;;;;4.30;2.60;;;;;;;2.95;100.00;101999.59;129891;1267;107670;-83
2024/01/28 05:04:51;;;;;;;5.00;2.90;;;;;;;2.93;100.00;102008.98;130090;1265;107721;-82
2024/01/28 05:07:57;;;;;;;7.70;3.00;;;;;;;2.97;100.00;102010.08;130095;1267;107483;-83
2024/01/28 05:11:03;;;;;;;4.20;2.20;;;;;;;2.97;100.00;102013.57;130108;1266;106944;-83
2024/01/28 05:14:09;;;;;;;5.40;2.80;;;;;;;2.96;100.00;102014.32;130096;1266;107350;-83
2024/01/28 05:17:15;;;;;;;6.60;2.50;;;;;;;2.96;100.00;102016.95;130036;1264;108749;-83
2024/01/28 05:20:21;;;;;;;5.60;2.80;;;;;;;2.98;100.00;102008.27;130023;1264;106867;-82
2024/01/28 05:23:26;;;;;;;6.20;2.90;;;;;;;2.98;100.00;102009.11;130044;1266;107452;-84
2024/01/28 05:26:32;;;;;;;5.60;2.90;;;;;;;2.97;100.00;102015.34;130101;1267;107003;-83
2024/01/28 05:29:38;;;;;;;4.80;3.00;;;;;;;2.95;100.00;102024.20;130171;1267;106469;-84
2024/01/28 05:32:43;;;;;;;5.40;2.90;;;;;;;2.94;100.00;102033.70;130115;1267;107879;-83
2024/01/28 05:35:49;;;;;;;6.00;2.90;;;;;;;2.95;100.00;102038.25;130129;1267;107753;-83
2024/01/28 05:38:55;;;;;;;6.40;3.50;;;;;;;2.94;100.00;102042.86;129993;1264;108517;-83
2024/01/28 05:42:01;;;;;;;7.70;3.80;;;;;;;2.98;100.00;102051.48;130083;1266;107639;-83
2024/01/28 05:45:08;;;;;;;5.00;3.50;;;;;;;3.02;100.00;102044.30;130062;1267;107779;-84
2024/01/28 05:48:14;;;;;;;5.40;3.40;;;;;;;3.03;100.00;102046.56;130131;1267;106986;-84
2024/01/28 05:51:20;;;;;;;5.50;3.40;;;;;;;2.98;100.00;102045.71;130120;1263;106514;-84
2024/01/28 05:54:26;;;;;;;6.00;3.20;;;;;;;2.92;100.00;102041.70;130125;1263;107507;-83
2024/01/28 05:57:31;;;;;;;5.50;3.20;;;;;;;2.92;100.00;102046.11;130096;1267;108996;-83
2024/01/28 06:00:37;;;;;;;4.60;2.90;;;;;;;2.93;100.00;102045.20;130162;1267;106295;-83
2024/01/28 06:03:43;;;;;;;5.60;3.20;;;;;;;2.96;100.00;102045.61;130118;1267;108519;-82
2024/01/28 06:06:48;;;;;;;6.50;3.80;;;;;;;3.00;100.00;102046.70;130149;1264;107539;-82
2024/01/28 06:09:54;;;;;;;8.00;3.80;;;;;;;3.01;100.00;102045.76;130115;1264;108364;-83
2024/01/28 06:12:59;;;;;;;6.30;3.90;;;;;;;3.01;100.00;102044.20;130142;1266;108635;-83
2024/01/28 06:16:07;;;;;;;6.10;3.60;;;;;;;3.00;100.00;102047.57;130153;1266;108588;-83
2024/01/28 06:19:12;;;;;;;16.00;5.90;;;;;;;2.98;100.00;102045.36;130177;1266;106786;-84
2024/01/28 06:22:18;;;;;;;5.50;3.40;;;;;;;2.96;100.00;102044.71;130141;1267;107735;-84
2024/01/28 06:25:23;;;;;;;8.10;3.90;;;;;;;2.95;100.00;102056.02;130145;1264;107214;-83
2024/01/28 06:28:29;;;;;;;15.20;6.90;;;;;;;2.92;100.00;102065.27;130144;1267;107646;-83
2024/01/28 06:31:35;;;;;;;7.00;3.80;;;;;;;2.86;100.00;102069.88;130131;1264;106714;-84
2024/01/28 06:34:40;;;;;;;6.10;3.40;;;;;;;2.79;100.00;102075.46;130149;1263;106965;-85
2024/01/28 06:37:46;;;;;;;5.90;3.20;;;;;;;2.74;100.00;102078.80;130066;1266;108716;-83
2024/01/28 06:40:52;;;;;;;7.60;4.90;;;;;;;2.74;100.00;102078.43;129879;1268;106661;-81
2024/01/28 06:43:57;;;;;;;41.70;17.00;;;;;;;2.79;100.00;102071.73;130179;1267;106237;-83
2024/01/28 06:47:04;;;;;;;22.60;9.80;;;;;;;2.85;100.00;102072.77;130225;1279;108559;-82
2024/01/28 06:50:11;;;;;;;14.90;9.50;;;;;;;2.88;100.00;102075.29;130225;1263;107004;-82
2024/01/28 06:53:16;;;;;;;26.30;13.20;;;;;;;2.88;100.00;102076.67;129888;1264;107281;-83
2024/01/28 06:56:22;;;;;;;27.10;13.60;;;;;;;2.89;100.00;102080.15;130139;1266;106374;-84
2024/01/28 06:59:28;;;;;;;16.20;10.20;;;;;;;2.93;100.00;102089.86;130186;1267;107984;-83
2024/01/28 07:02:33;;;;;;;7.20;4.80;;;;;;;3.00;100.00;102099.59;130160;1267;107675;-82
2024/01/28 07:05:39;;;;;;;6.50;4.00;;;;;;;3.08;100.00;102097.55;130082;1266;108892;-81
2024/01/28 07:08:45;;;;;;;8.20;4.80;;;;;;;3.22;100.00;102094.88;130066;1275;106572;-83
2024/01/28 07:11:50;;;;;;;16.30;12.20;;;;;;;3.36;100.00;102089.94;130121;1264;108312;-83
2024/01/28 07:14:56;;;;;;;15.20;10.20;;;;;;;3.48;100.00;102091.38;130311;1266;108795;-82
2024/01/28 07:18:02;;;;;;;7.40;4.00;;;;;;;3.57;100.00;102095.79;130188;1267;108153;-83
2024/01/28 07:21:07;;;;;;;41.90;30.50;;;;;;;3.59;100.00;102094.98;130159;1267;107431;-84
2024/01/28 07:24:14;;;;;;;18.90;13.90;;;;;;;3.70;100.00;102094.55;130206;1268;107505;-84
2024/01/28 07:27:20;;;;;;;17.00;13.20;;;;;;;3.83;100.00;102097.00;130047;1266;106858;-82
2024/01/28 07:30:27;;;;;;;162.90;90.40;;;;;;;3.95;100.00;102104.24;130198;1266;108707;-83
2024/01/28 07:33:33;;;;;;;109.90;64.80;;;;;;;4.06;100.00;102103.42;130166;1267;107284;-83
2024/01/28 07:36:38;;;;;;;117.20;52.40;;;;;;;4.12;99.98;102102.45;130138;1270;108334;-83
2024/01/28 07:39:44;;;;;;;372.10;179.80;;;;;;;4.14;99.96;102106.43;130295;1264;108467;-83
2024/01/28 07:42:55;;;;;;;82.80;43.40;;;;;;;4.14;99.98;102107.46;130063;1264;107688;-82
2024/01/28 07:46:00;;;;;;;110.30;58.00;;;;;;;4.20;99.98;102111.41;130009;1264;107756;-82
2024/01/28 07:49:06;;;;;;;258.80;141.80;;;;;;;4.28;99.94;102115.34;130176;1266;106371;-84
2024/01/28 07:52:11;;;;;;;185.80;104.00;;;;;;;4.37;99.86;102121.65;130164;1264;107615;-84
2024/01/28 07:55:17;;;;;;;100.80;58.80;;;;;;;4.42;99.78;102123.34;130120;1265;108468;-83
2024/01/28 07:58:23;;;;;;;138.50;84.60;;;;;;;4.47;99.79;102121.38;130237;1264;107628;-83
2024/01/28 08:01:30;;;;;;;73.20;43.90;;;;;;;4.49;99.54;102116.00;130267;1267;107760;-83
2024/01/28 08:04:35;;;;;;;27.70;18.20;;;;;;;4.49;99.60;102116.34;130118;1278;108545;-81
2024/01/28 08:07:41;;;;;;;30.90;19.90;;;;;;;4.51;99.34;102124.55;130194;1266;107686;-83
2024/01/28 08:10:47;;;;;;;114.10;61.80;;;;;;;4.49;99.32;102120.91;130101;1267;108663;-83
2024/01/28 08:13:52;;;;;;;22.70;13.00;;;;;;;4.53;99.37;102125.16;130219;1264;107778;-82
2024/01/28 08:16:58;;;;;;;16.10;10.40;;;;;;;4.47;99.08;102132.66;130176;1273;107682;-82
2024/01/28 08:20:04;;;;;;;100.40;51.50;;;;;;;4.48;99.55;102135.96;130169;1264;107577;-82
2024/01/28 08:23:10;;;;;;;19.50;11.70;;;;;;;4.49;99.57;102139.23;130000;1267;107605;-79
2024/01/28 08:26:16;;;;;;;15.00;8.50;;;;;;;4.49;99.45;102138.01;130206;1264;106956;-82
2024/01/28 08:29:22;;;;;;;337.10;176.80;;;;;;;4.50;99.56;102139.73;130307;1266;106652;-82
2024/01/28 08:32:28;;;;;;;48.30;26.20;;;;;;;4.59;99.49;102141.30;130060;1264;107526;-81
2024/01/28 08:35:33;;;;;;;21.70;13.20;;;;;;;4.58;99.35;102140.46;130223;1265;108766;-82
2024/01/28 08:38:39;;;;;;;19.80;12.90;;;;;;;4.59;99.46;102137.58;130310;1267;108597;-82
2024/01/28 08:41:45;;;;;;;26.40;18.60;;;;;;;4.65;99.62;102142.25;130225;1267;107266;-82
2024/01/28 08:44:50;;;;;;;41.60;29.90;;;;;;;4.71;99.57;102144.79;130151;1267;108646;-81
2024/01/28 08:47:56;;;;;;;14.10;9.50;;;;;;;4.85;99.87;102151.59;130261;1266;108719;-77
2024/01/28 08:51:01;;;;;;;16.80;11.50;;;;;;;4.94;99.53;102147.84;129859;1267;107595;-75
2024/01/28 08:54:07;;;;;;;18.60;10.60;;;;;;;4.99;99.23;102142.49;129846;1267;109087;-77
2024/01/28 08:57:13;;;;;;;16.20;12.60;;;;;;;4.96;99.06;102146.48;129919;1267;106631;-77
2024/01/28 09:00:20;;;;;;;25.20;19.40;;;;;;;4.95;99.22;102150.80;129939;1267;109059;-77
2024/01/28 09:03:26;;;;;;;20.50;14.70;;;;;;;5.01;99.49;102151.39;129997;1267;106110;-77
2024/01/28 09:06:32;;;;;;;23.90;15.70;;;;;;;5.07;99.53;102149.33;129986;1264;108600;-77
2024/01/28 09:09:37;;;;;;;24.50;20.60;;;;;;;5.14;98.82;102140.59;129981;1267;107803;-77
2024/01/28 09:12:43;;;;;;;17.30;13.70;;;;;;;5.22;99.35;102138.97;130035;1276;108798;-76
2024/01/28 09:15:48;;;;;;;29.20;18.60;;;;;;;5.33;99.19;102138.44;129888;1267;108612;-76
2024/01/28 09:18:54;;;;;;;36.30;27.60;;;;;;;5.35;98.88;102133.58;129974;1267;106256;-76
2024/01/28 09:22:00;;;;;;;20.70;12.60;;;;;;;5.38;98.94;102134.33;129973;1267;108494;-75
2024/01/28 09:25:06;;;;;;;12.80;8.30;;;;;;;5.37;98.77;102141.25;129966;1267;107836;-75
2024/01/28 09:28:12;;;;;;;15.80;10.50;;;;;;;5.37;99.05;102138.41;130012;1267;107801;-75
2024/01/28 09:31:17;;;;;;;18.90;11.80;;;;;;;5.41;98.42;102144.77;130001;1267;107173;-76
2024/01/28 09:34:23;;;;;;;96.40;45.80;;;;;;;5.34;97.79;102142.27;130025;1270;107325;-76
2024/01/28 09:37:29;;;;;;;46.30;21.10;;;;;;;5.49;97.86;102143.29;130063;1277;108656;-77
2024/01/28 09:40:34;;;;;;;179.00;80.30;;;;;;;5.60;98.85;102141.38;129988;1266;106541;-82
2024/01/28 09:43:41;;;;;;;199.10;92.80;;;;;;;5.70;98.13;102138.06;131132;1265;106747;-82
2024/01/28 09:46:47;;;;;;;26.00;14.80;;;;;;;5.85;98.52;102139.27;130230;1266;107453;-83
2024/01/28 09:49:53;;;;;;;210.40;95.80;;;;;;;5.76;97.22;102142.74;130241;1266;108132;-82
2024/01/28 09:52:59;;;;;;;60.30;26.90;;;;;;;5.83;98.89;102146.25;130170;1267;109011;-82
2024/01/28 09:56:09;;;;;;;21.40;11.40;;;;;;;5.95;97.99;102149.39;130254;1266;106978;-82
2024/01/28 09:59:16;;;;;;;34.60;17.80;;;;;;;5.87;96.79;102149.95;130067;1267;107812;-82
2024/01/28 10:02:23;;;;;;;15.50;9.50;;;;;;;5.73;96.81;102151.88;130180;1278;108718;-81
2024/01/28 10:05:28;;;;;;;13.00;7.30;;;;;;;5.70;97.60;102158.02;130090;1277;107793;-82
2024/01/28 10:08:34;;;;;;;11.00;6.70;;;;;;;5.62;96.91;102165.80;130133;1277;106737;-82
2024/01/28 10:11:40;;;;;;;9.20;6.10;;;;;;;5.56;97.72;102165.58;130123;1269;108386;-82
2024/01/28 10:14:53;;;;;;;117.90;62.20;;;;;;;5.54;97.07;102169.02;130142;1264;108676;-83
2024/01/28 10:17:58;;;;;;;17.40;10.80;;;;;;;5.53;96.52;102171.37;129988;1277;106871;-82
2024/01/28 10:21:04;;;;;;;42.60;22.00;;;;;;;5.48;97.11;102166.46;130787;1267;107094;-82
2024/01/28 10:24:11;;;;;;;93.40;49.90;;;;;;;5.63;97.54;102170.54;130899;1266;106260;-86
2024/01/28 10:27:17;;;;;;;50.70;26.90;;;;;;;5.68;96.26;102171.18;130723;1266;107636;-86
2024/01/28 10:30:23;;;;;;;57.20;35.00;;;;;;;5.67;96.67;102173.85;130986;1266;107523;-86
2024/01/28 10:33:28;;;;;;;36.40;22.60;;;;;;;5.77;97.29;102172.88;130472;1264;108664;-87
2024/01/28 10:36:36;;;;;;;14.10;8.30;;;;;;;5.85;97.27;102179.36;130170;1264;107669;-86
2024/01/28 10:39:44;;;;;;;12.40;7.70;;;;;;;5.92;96.47;102185.54;130144;1267;106722;-87
2024/01/28 10:42:55;;;;;;;10.10;6.40;;;;;;;5.92;96.73;102186.09;130107;1278;108730;-86
2024/01/28 10:46:06;;;;;;;13.20;7.40;;;;;;;5.93;96.33;102192.58;130033;1264;106884;-88
2024/01/28 10:49:14;;;;;;;9.80;5.60;;;;;;;5.98;96.63;102190.63;130169;1267;107577;-88
2024/01/28 10:52:21;;;;;;;9.10;6.00;;;;;;;6.02;96.71;102189.31;130241;1276;106312;-88
2024/01/28 10:55:30;;;;;;;7.30;5.20;;;;;;;6.09;96.54;102187.20;130722;1266;105787;-86
2024/01/28 10:58:37;;;;;;;8.30;5.90;;;;;;;6.01;95.43;102185.69;130308;1267;108851;-88
2024/01/28 11:01:44;;;;;;;44.00;24.90;;;;;;;5.82;92.79;102189.08;130782;1266;106334;-88
2024/01/28 11:04:50;;;;;;;20.10;13.20;;;;;;;5.62;94.86;102185.78;130412;1266;108353;-89
2024/01/28 11:07:59;;;;;;;12.40;8.30;;;;;;;5.59;95.89;102184.89;130365;1264;108749;-88
2024/01/28 11:11:06;;;;;;;44.40;29.20;;;;;;;5.58;95.71;102190.02;130314;1263;107171;-85
2024/01/28 11:14:14;;;;;;;13.50;9.90;;;;;;;5.58;95.90;102185.97;130240;1264;105542;-87
2024/01/28 11:17:19;;;;;;;14.00;9.20;;;;;;;5.65;96.17;102184.73;130255;1267;107036;-89
2024/01/28 11:20:27;;;;;;;9.90;5.90;;;;;;;5.73;96.30;102181.04;130329;1264;106702;-89
2024/01/28 11:23:33;;;;;;;9.30;6.50;;;;;;;5.78;96.25;102186.60;130137;1263;107701;-87
2024/01/28 11:26:39;;;;;;;10.90;4.90;;;;;;;5.85;96.42;102191.02;130469;1264;107325;-88
2024/01/28 11:29:47;;;;;;;9.50;4.30;;;;;;;5.82;95.74;102190.81;130228;1264;107533;-87
2024/01/28 11:32:57;;;;;;;10.60;6.90;;;;;;;5.76;96.05;102194.63;130633;1263;108439;-87
2024/01/28 11:36:05;;;;;;;12.30;7.00;;;;;;;5.75;95.43;102194.70;130489;1263;107509;-87
2024/01/28 11:39:13;;;;;;;339.40;145.00;;;;;;;5.77;96.20;102197.95;130149;1264;108455;-86
2024/01/28 11:42:19;;;;;;;60.30;27.30;;;;;;;5.80;96.07;102198.68;130441;1264;107151;-87
2024/01/28 11:45:25;;;;;;;41.80;20.40;;;;;;;5.80;96.06;102199.74;130540;1266;108886;-86
2024/01/28 11:48:32;;;;;;;17.30;8.60;;;;;;;5.77;95.68;102203.95;130412;1264;108569;-87
2024/01/28 11:51:37;;;;;;;31.20;21.40;;;;;;;5.70;95.48;102205.35;130524;1266;108525;-86
2024/01/28 11:54:44;;;;;;;17.30;11.30;;;;;;;5.70;95.84;102201.80;130360;1263;107785;-86
2024/01/28 11:57:50;;;;;;;19.50;13.00;;;;;;;5.73;95.94;102202.76;130360;1264;107475;-87
2024/01/28 12:00:56;;;;;;;39.50;30.70;;;;;;;5.77;95.75;102203.27;130141;1266;106661;-87
2024/01/28 12:04:04;;;;;;;30.30;21.30;;;;;;;5.81;95.74;102199.01;130448;1266;106635;-87
2024/01/28 12:07:11;;;;;;;17.50;11.90;;;;;;;5.83;95.42;102198.38;130200;1267;107298;-86
2024/01/28 12:10:17;;;;;;;12.10;6.70;;;;;;;5.78;94.65;102205.33;130110;1266;106973;-86
2024/01/28 12:13:23;;;;;;;94.60;44.50;;;;;;;5.69;94.24;102202.92;130222;1266;107379;-87
2024/01/28 12:16:29;;;;;;;33.40;20.60;;;;;;;5.64;94.53;102205.66;130107;1267;108633;-87
2024/01/28 12:19:38;;;;;;;35.10;21.70;;;;;;;5.67;94.84;102209.91;130143;1266;107612;-87
2024/01/28 12:22:45;;;;;;;16.40;9.10;;;;;;;5.70;94.92;102215.76;130191;1267;107527;-86
2024/01/28 12:25:51;;;;;;;27.60;16.60;;;;;;;5.70;94.49;102215.89;130200;1264;108661;-88
2024/01/28 12:28:58;;;;;;;13.30;8.40;;;;;;;5.72;94.90;102220.96;130283;1267;107932;-88
2024/01/28 12:32:06;;;;;;;12.70;7.30;;;;;;;5.70;94.95;102217.01;130177;1267;106973;-87
2024/01/28 12:35:12;;;;;;;10.10;6.40;;;;;;;5.70;94.77;102220.91;130218;1267;108419;-87
2024/01/28 12:38:18;;;;;;;21.60;12.10;;;;;;;5.67;94.77;102216.95;130510;1269;109769;-86
2024/01/28 12:41:25;;;;;;;15.40;9.70;;;;;;;5.69;94.34;102215.09;130399;1267;109343;-87
2024/01/28 12:44:31;;;;;;;28.00;17.10;;;;;;;5.69;94.83;102217.38;130253;1264;105824;-86
2024/01/28 12:47:37;;;;;;;35.50;21.60;;;;;;;5.74;95.05;102218.03;130219;1266;108619;-86
2024/01/28 12:50:44;;;;;;;18.90;10.70;;;;;;;5.71;94.31;102218.19;130330;1264;107471;-86
2024/01/28 12:53:51;;;;;;;11.90;6.20;;;;;;;5.68;94.10;102219.58;130167;1276;106526;-87
2024/01/28 12:56:56;;;;;;;11.40;5.40;;;;;;;5.72;93.80;102217.58;131159;1263;108645;-83
2024/01/28 13:00:02;;;;;;;24.20;14.00;;;;;;;5.76;94.56;102213.88;133213;1263;108736;-83
2024/01/28 13:03:09;;;;;;;38.70;24.80;;;;;;;5.86;93.51;102210.58;130374;1264;107444;-83
2024/01/28 13:06:14;;;;;;;23.40;13.10;;;;;;;5.88;93.64;102210.80;130170;1267;107596;-84
2024/01/28 13:09:20;;;;;;;38.90;25.40;;;;;;;5.92;93.85;102210.48;130177;1263;108764;-85
2024/01/28 13:12:32;;;;;;;22.30;14.90;;;;;;;5.92;94.44;102214.34;130179;1267;108726;-84
2024/01/28 13:15:37;;;;;;;31.50;21.70;;;;;;;5.90;93.88;102221.50;130177;1277;108714;-84
2024/01/28 13:18:45;;;;;;;18.30;11.60;;;;;;;5.86;94.44;102226.63;130093;1266;107411;-84
2024/01/28 13:21:50;;;;;;;12.40;7.30;;;;;;;5.89;95.19;102226.50;130195;1267;108368;-83
2024/01/28 13:24:56;;;;;;;12.70;6.90;;;;;;;5.96;94.86;102224.09;130140;1266;106802;-84
2024/01/28 13:28:02;;;;;;;10.40;6.10;;;;;;;6.00;94.65;102221.44;130181;1267;107457;-84
2024/01/28 13:31:08;;;;;;;9.70;6.00;;;;;;;5.96;93.69;102221.08;130214;1266;107245;-86
2024/01/28 13:34:13;;;;;;;11.50;6.50;;;;;;;5.92;94.03;102221.98;130181;1266;108217;-84
2024/01/28 13:37:19;;;;;;;15.00;8.20;;;;;;;5.93;94.12;102221.23;130215;1266;108829;-84
2024/01/28 13:40:25;;;;;;;9.30;6.60;;;;;;;5.96;94.25;102223.04;130215;1264;106693;-83
2024/01/28 13:43:34;;;;;;;8.30;4.60;;;;;;;5.96;94.50;102218.77;130188;1264;108409;-86
2024/01/28 13:46:40;;;;;;;7.90;4.60;;;;;;;5.97;94.30;102224.92;130231;1277;108211;-84
2024/01/28 13:49:46;;;;;;;13.90;7.90;;;;;;;5.99;93.94;102221.85;130186;1264;106685;-86
2024/01/28 13:52:51;;;;;;;9.80;5.80;;;;;;;5.97;93.84;102225.11;130063;1263;107086;-84
2024/01/28 13:55:57;;;;;;;14.90;9.60;;;;;;;6.00;94.06;102219.45;130109;1267;107744;-85
2024/01/28 13:59:03;;;;;;;34.70;20.90;;;;;;;6.04;94.12;102218.21;130330;1266;106759;-84
2024/01/28 14:02:08;;;;;;;20.50;12.50;;;;;;;6.06;93.81;102219.53;130304;1267;107482;-84